Aérodrome :
LOGIN :

S'inscrire | Disclaimer

   EN    FR    IT 

 










Légende :    VFR   VFR Marginal   IFR   IFR Intensif   IFR Très Intensif
Visi : 
Plafond : 
>= 8 km
>= 3000ft
5 à 8 km
1000 à 3000 ft
1500m à 5 km
500 à 1000 ft
800 à 1500m
200 à 500 ft
< 800m
< 200 ft
Symboles :   Orages  Brouillard  Fortes neiges  Fortes précipitations  Vent > 20 kt
SIGMETs :   Divers  Orages  Givrage  Turbulence  Onde Orograph.  Cendres Volcan.







- Altitude de l'aérodrome : 36 ft
- Code IATA : LTQ
- Voir les cartes d'approche


LFAT - Le Touquet

DERNIER METAR :
  • 241530Z AUTO 04012KT 360V080 8000 NSC 14/08 Q1026 NOSIG

METARs EXPIRÉS :
  • 241500Z AUTO 07010KT 020V100 7000 NSC 15/08 Q1026 NOSIG
  • 241430Z AUTO 05011KT 010V080 CAVOK 14/07 Q1026 NOSIG
  • 241400Z AUTO 07012KT 030V100 CAVOK 15/07 Q1026 NOSIG
  • 241330Z AUTO 08011KT 050V110 CAVOK 15/07 Q1026 NOSIG
  • 241300Z AUTO 07010KT 020V120 5000 HZ NSC 14/08 Q1026 NOSIG

TAF TAF LFAT
Valide du 24 à 15h jusqu'au 25 à 00h UTC


241400Z 2415/2424 07010KT CAVOK
ATIS : +33 3 21 06 62 84
Pas de NOTAMs connus pour ce terrain.



MET'MAP, la Météo Aéronautique d'un coup d'oeil ! - Copyright ORBIFLY Décembre 2007 - Disclaimer

ORBIFLY MET'MAP TEAM :

Programmation & Développement : Alexandra Zaïnal
Conception & Développement : Baudouin d'Aumeries
Co-Programmation & Développement : Marc-Olivier Méhu
Soutien technique & logistique : Manuel Goepfert

Contact : metmap@orbifly.com




SOURCES & CREDITS :

   NOAA